Thomasville, GA

6:10 AM EDT on July 13, 2014 (GMT -0400)
Thomasville Downtown Area - CNS Internet (KGATHOMA4) Elev 215 ft | 30.83 °N, 83.98 °W | Change Station

Current weather conditions updated 9 seconds ago

Overcast
Overcast
71.4 °F
Feels Like 71.4 °F
N
4.0
Wind Variable Wind from East
Gusts 5.0 mph

Today is forecast to be nearly the same temperature as yesterday. Showers and thunderstorms early tonight.

Today
High -- | Low -- °F
--% Chance of Precip.
Yesterday
High -- | Low -- °F
Precip. -- in
6:41 AM 8:40 PM
Full, 99% visible
Pressure 30.13 in
Visibility 7.0 miles
Clouds Overcast 300 ft
Dew Point 70 °F
Humidity 97%
Rainfall 0.00 in
Snow Depth Not available.
UV 0.0 out of 12
Pollen 2.30 out of 12
Air Quality Not available.
Flu Activity Sporadic
METAR KTVI 130955Z AUTO 00000KT 7SM OVC003 22/22 A3013 RMK AO2 LTG DSNT SW

More Conditions Fewer Conditions

Pressure 30.13 in
Visibility 7.0 miles
Clouds Overcast 300 ft
Dew Point 70 °F
Humidity 97%
Rainfall 0.00 in
Snow Depth Not available.
UV 0.0 out of 12
Pollen 2.30 out of 12
Air Quality Not available.
Flu Activity Sporadic
METAR KTVI 130955Z AUTO 00000KT 7SM OVC003 22/22 A3013 RMK AO2 LTG DSNT SW

More Conditions Fewer Conditions

10-Day Weather Forecast

Almanac

Astronomy

Jul. 13, 2014 Rise Set
Actual Time 6:41 AM EDT 8:40 PM EDT
Civil Twilight 6:14 AM EDT 9:08 PM EDT
Nautical Twilight 5:41 AM EDT 9:41 PM EDT
Astronomical Twilight 5:06 AM EDT 10:16 PM EDT
Moon 9:39 PM EDT 8:02 AM EDT
Length of Visible Light 14h 53m
Length of Day
13h 59m
Tomorrow will be 0m 53s shorter.
Full, 99% of the Moon is Illuminated
Today
Full
Jul 18
Last Quarter
Jul 26
New
Aug 3
First Quarter
Aug 10
Full

Today's Extremes

State Highs State Lows

Community

WunderPhotos

Upload Photos

1,733,147 photos uploaded!

Nearby

Snow Depth

Station Depth Elevation
No new snow has been reported.

Earthquake Activity

City Distance Mag. Time & Date
No recent earthquake activity has been reported nearby.
Minimum magnitude displayed is 2.5.

Coastal Water Temperatures

Place Temperature
No Stations Reporting

Nearby Weather Stations

Station Location Temp. Heat Index Dew Point Humidity Wind Precip. Elev Updated Type
Thomasville Downtown Area - CNS Internet, Thomasville, GA 71.4 °F - 70 °F 97% East  at  4.0 mph 0.00 in / hr 215 ft 6:09 AM EDT Rapid Fire
KJ4ZNK, Cairo, GA 73.0 °F 74 °F 64 °F 74% North  at  0.0 mph 0.00 in / hr 302 ft 6:10 AM EDT Rapid Fire
FL_Meso Monticello , Monticello, FL 70 °F - 69 °F 99% ESE  at  1 mph 0.00 in / hr 180 ft 4:45 AM EDT MADIS
City of Moultrie Service Center, Moultrie, GA 71.8 °F - 71 °F 97% ESE  at  0.0 mph 0.00 in / hr 299 ft 6:09 AM EDT Normal
Pecan Acres, Monticello, FL 72.4 °F - 72 °F 98% ESE  at  0.0 mph - / hr 105 ft 6:03 AM EDT Normal

Show More Stations Show Fewer Stations